createdAt,value
2022-10-11T00:04:47.702Z,17.65
2022-10-11T00:11:30.183Z,22.60
2022-10-11T00:18:12.693Z,19.38
2022-10-11T00:24:55.053Z,22.90
2022-10-11T00:31:46.166Z,16.52
2022-10-11T00:38:39.322Z,20.27
2022-10-11T00:45:36.140Z,19.88
2022-10-11T00:52:33.239Z,19.35
2022-10-11T00:59:33.650Z,21.50
2022-10-11T01:06:27.429Z,21.48
2022-10-11T01:13:31.424Z,20.00
2022-10-11T01:20:33.922Z,25.90
2022-10-11T01:27:35.638Z,19.80
2022-10-11T01:34:48.052Z,17.90
2022-10-11T01:41:47.105Z,19.42
2022-10-11T01:48:55.421Z,18.58
2022-10-11T01:56:09.730Z,17.05
2022-10-11T02:03:37.488Z,18.27
2022-10-11T02:10:53.925Z,16.15
2022-10-11T02:17:53.989Z,16.23
2022-10-11T02:24:51.783Z,18.98
2022-10-11T02:31:46.213Z,20.25
2022-10-11T02:38:47.735Z,22.85
2022-10-11T02:45:49.864Z,22.42
2022-10-11T02:52:43.010Z,23.63
2022-10-11T02:59:35.260Z,24.77
2022-10-11T03:06:28.603Z,27.15
2022-10-11T03:13:22.905Z,27.20
2022-10-11T03:20:16.934Z,30.83
2022-10-11T03:27:11.337Z,28.05
2022-10-11T03:34:05.436Z,34.15
2022-10-11T03:40:59.555Z,32.03
2022-10-11T03:47:53.095Z,36.17
2022-10-11T03:54:45.790Z,36.78
2022-10-11T04:01:39.064Z,30.13
2022-10-11T04:08:33.240Z,35.60
2022-10-11T04:15:27.396Z,40.13
2022-10-11T04:22:21.452Z,33.97
2022-10-11T04:29:16.323Z,32.03
2022-10-11T04:36:10.268Z,37.70
2022-10-11T04:43:04.247Z,35.65
2022-10-11T04:49:58.422Z,32.72
2022-10-11T04:56:52.657Z,35.92
2022-10-11T05:03:46.296Z,38.33
2022-10-11T05:10:39.455Z,34.05
2022-10-11T05:17:33.757Z,36.78
2022-10-11T05:24:28.028Z,34.67
2022-10-11T05:31:23.490Z,40.22
2022-10-11T05:38:23.902Z,38.30
2022-10-11T05:45:16.983Z,47.10
2022-10-11T05:52:12.858Z,35.65
2022-10-11T05:59:06.943Z,32.47
2022-10-11T06:06:04.731Z,34.00
2022-10-11T06:12:58.979Z,28.27
2022-10-11T06:20:10.487Z,31.80
2022-10-11T06:27:21.929Z,30.88
2022-10-11T06:34:48.473Z,30.88
2022-10-11T06:41:56.655Z,27.27
2022-10-11T06:49:22.932Z,25.73
2022-10-11T06:56:36.979Z,27.13
2022-10-11T07:04:03.035Z,23.38
2022-10-11T07:11:17.747Z,25.15
2022-10-11T07:18:38.389Z,22.05
2022-10-11T07:25:46.215Z,28.33
2022-10-11T07:32:56.890Z,25.15
2022-10-11T07:40:12.850Z,26.65
2022-10-11T07:47:21.152Z,25.55
2022-10-11T07:54:27.987Z,22.08
2022-10-11T08:01:37.275Z,22.45
2022-10-11T08:08:48.444Z,23.50
2022-10-11T08:15:54.799Z,29.02
2022-10-11T08:23:06.674Z,22.33
2022-10-11T08:30:14.333Z,22.40
2022-10-11T08:37:24.850Z,25.20
2022-10-11T08:52:37.525Z,24.60
2022-10-11T08:59:47.246Z,21.10
2022-10-11T09:06:38.536Z,25.25
2022-10-11T09:13:51.359Z,19.90
2022-10-11T09:20:56.882Z,27.08
2022-10-11T09:28:03.687Z,26.80
2022-10-11T09:34:48.396Z,18.63
2022-10-11T09:41:43.101Z,20.23
2022-10-11T09:48:38.013Z,21.30
2022-10-11T09:55:53.676Z,23.50
2022-10-11T10:02:46.781Z,20.58
2022-10-11T10:09:30.875Z,19.85
2022-10-11T10:16:32.102Z,21.80
2022-10-11T10:23:31.710Z,18.73
2022-10-11T10:30:19.445Z,18.88
2022-10-11T10:37:29.741Z,18.30
2022-10-11T10:44:12.358Z,19.02
2022-10-11T10:51:34.331Z,16.90
2022-10-11T10:58:44.465Z,18.60
2022-10-11T11:05:48.295Z,27.60
2022-10-11T11:12:51.001Z,15.60
2022-10-11T11:19:57.161Z,17.52
2022-10-11T11:27:10.266Z,18.15
2022-10-11T11:34:19.684Z,20.13
2022-10-11T11:41:06.088Z,15.10
2022-10-11T11:48:02.037Z,14.13
2022-10-11T11:54:53.844Z,15.45
2022-10-11T12:02:22.036Z,12.45
2022-10-11T12:09:16.319Z,13.23
2022-10-11T12:16:12.840Z,13.23
2022-10-11T12:23:30.313Z,14.00
2022-10-11T12:30:55.586Z,16.98
2022-10-11T12:37:37.887Z,16.92
2022-10-11T12:44:23.270Z,12.25
2022-10-11T12:51:31.367Z,14.70
2022-10-11T12:58:41.488Z,17.65
2022-10-11T13:05:31.925Z,12.55
2022-10-11T13:12:23.255Z,13.07
2022-10-11T13:19:23.202Z,13.57
2022-10-11T13:26:05.788Z,13.93
2022-10-11T13:32:48.668Z,14.88
2022-10-11T13:39:48.808Z,11.60
2022-10-11T13:46:32.967Z,18.40
2022-10-11T13:53:15.239Z,11.82
2022-10-11T13:59:57.651Z,16.55
2022-10-11T14:06:58.164Z,10.82
2022-10-11T14:13:43.433Z,16.80
2022-10-11T14:20:38.946Z,12.18
2022-10-11T14:27:24.077Z,12.73
2022-10-11T14:34:06.608Z,21.00
2022-10-11T14:40:48.955Z,15.15
2022-10-11T14:47:42.930Z,10.80
2022-10-11T14:54:27.864Z,13.20
2022-10-11T15:01:15.373Z,16.13
2022-10-11T15:07:58.280Z,11.80
2022-10-11T15:14:40.771Z,12.80
2022-10-11T15:21:25.822Z,12.43
2022-10-11T15:28:14.453Z,16.20
2022-10-11T15:34:56.818Z,16.58
2022-10-11T15:41:39.140Z,13.70
2022-10-11T15:48:40.128Z,17.27
2022-10-11T15:55:22.501Z,14.35
2022-10-11T16:02:04.965Z,15.85
2022-10-11T16:08:47.932Z,18.00
2022-10-11T16:15:30.398Z,17.30
2022-10-11T16:22:13.083Z,14.07
2022-10-11T16:28:56.587Z,16.30
2022-10-11T16:35:42.593Z,12.68
2022-10-11T16:42:26.159Z,16.65
2022-10-11T16:49:08.664Z,15.23
2022-10-11T16:55:51.215Z,14.70
2022-10-11T17:02:33.607Z,16.45
2022-10-11T17:09:16.318Z,14.52
2022-10-11T17:15:58.715Z,15.23
2022-10-11T17:22:41.044Z,14.68
2022-10-11T17:29:24.265Z,18.95
2022-10-11T17:36:21.676Z,20.75
2022-10-11T17:43:04.226Z,16.77
2022-10-11T17:49:46.883Z,19.52
2022-10-11T17:56:35.086Z,15.68
2022-10-11T18:03:19.888Z,17.63
2022-10-11T18:10:02.490Z,16.30
2022-10-11T18:16:45.700Z,20.58
2022-10-11T18:23:28.206Z,20.75
2022-10-11T18:30:10.806Z,19.75
2022-10-11T18:36:53.139Z,20.75
2022-10-11T18:43:35.996Z,18.30
2022-10-11T18:50:18.973Z,18.48
2022-10-11T18:57:01.314Z,16.23
2022-10-11T19:03:51.398Z,14.43
2022-10-11T19:10:34.499Z,15.63
2022-10-11T19:17:16.883Z,18.77
2022-10-11T19:23:59.341Z,19.98
2022-10-11T19:30:41.677Z,22.13
2022-10-11T19:37:24.066Z,22.23
2022-10-11T19:44:07.058Z,24.33
2022-10-11T19:50:49.423Z,20.55
2022-10-11T19:57:31.976Z,22.23
2022-10-11T20:04:33.190Z,20.20
2022-10-11T20:11:18.145Z,21.17
2022-10-11T20:18:00.453Z,27.15
2022-10-11T20:24:42.836Z,19.45
2022-10-11T20:31:31.424Z,21.17
2022-10-11T20:38:13.798Z,22.10
2022-10-11T20:44:56.181Z,22.42
2022-10-11T20:51:40.006Z,19.38
2022-10-11T20:58:23.460Z,24.00
2022-10-11T21:05:06.551Z,24.38
2022-10-11T21:11:48.877Z,25.17
2022-10-11T21:18:31.486Z,19.35
2022-10-11T21:25:13.955Z,18.27
2022-10-11T21:31:56.293Z,23.98
2022-10-11T21:38:39.270Z,18.98
2022-10-11T21:45:21.681Z,21.95
2022-10-11T21:52:04.693Z,21.60
2022-10-11T21:58:48.272Z,20.13
2022-10-11T22:05:30.695Z,23.48
2022-10-11T22:12:13.096Z,16.13
2022-10-11T22:18:55.503Z,22.42
2022-10-11T22:25:39.032Z,27.50
2022-10-11T22:32:21.790Z,25.48
2022-10-11T22:39:07.785Z,25.75
2022-10-11T22:45:51.290Z,20.90
2022-10-11T22:52:33.674Z,20.13
2022-10-11T22:59:15.978Z,20.63
2022-10-11T23:05:58.673Z,22.80
2022-10-11T23:12:41.092Z,23.48
2022-10-11T23:19:23.422Z,20.80
2022-10-11T23:26:09.095Z,20.38
2022-10-11T23:32:51.564Z,17.38
2022-10-11T23:39:33.914Z,18.02
2022-10-11T23:46:16.425Z,21.98
2022-10-11T23:52:58.759Z,19.77
2022-10-11T23:59:41.203Z,19.50
